createdAt,value
2022-10-28T05:25:08.483Z,64.60
2022-10-28T05:35:09.869Z,60.70
2022-10-28T05:45:11.256Z,57.30
2022-10-28T05:55:12.651Z,55.90
2022-10-28T06:05:14.049Z,55.60
2022-10-28T06:15:13.901Z,55.40
2022-10-28T06:25:15.291Z,54.40
2022-10-28T06:35:17.898Z,53.90
2022-10-28T06:45:19.300Z,53.60
2022-10-28T06:55:22.224Z,52.90
2022-10-28T07:05:23.622Z,50.50
2022-10-28T07:15:25.001Z,50.00
2022-10-28T07:25:26.384Z,49.80
2022-10-28T07:35:27.774Z,49.20
2022-10-28T07:45:29.158Z,48.90
2022-10-28T07:55:30.563Z,48.90
2022-10-28T08:05:31.936Z,48.60
2022-10-28T08:15:33.380Z,48.70
2022-10-28T08:25:34.831Z,48.90
2022-10-28T08:35:36.254Z,48.60
2022-10-28T08:45:37.666Z,48.70
2022-10-28T08:55:39.064Z,48.60
2022-10-28T09:05:40.446Z,48.70
2022-10-28T09:15:41.869Z,48.40
2022-10-28T09:25:43.312Z,48.40
2022-10-28T09:35:44.724Z,48.50
2022-10-28T09:45:46.114Z,48.40
2022-10-28T09:55:47.540Z,48.60
2022-10-28T10:05:49.002Z,48.40
2022-10-28T10:15:50.605Z,48.50
2022-10-28T10:25:52.022Z,48.50
2022-10-28T10:35:57.795Z,48.70
2022-10-28T10:46:01.554Z,48.40
2022-10-28T10:56:02.958Z,48.50
2022-10-28T11:06:23.191Z,48.60
2022-10-28T11:16:25.789Z,48.70
2022-10-28T11:26:27.191Z,48.80
2022-10-28T11:36:28.598Z,48.80
2022-10-28T11:46:29.992Z,49.00
2022-10-28T11:56:31.388Z,48.90
2022-10-28T12:06:32.767Z,48.90
2022-10-28T12:16:34.170Z,49.20
2022-10-28T12:26:35.549Z,49.30
2022-10-28T12:36:36.954Z,49.50
2022-10-28T12:46:38.372Z,49.80
2022-10-28T12:56:39.791Z,49.70
2022-10-28T13:06:41.186Z,49.90
2022-10-28T13:16:42.565Z,49.70
2022-10-28T13:26:43.970Z,49.50
2022-10-28T13:36:45.407Z,48.90
2022-10-28T13:46:46.792Z,48.70
2022-10-28T13:59:05.581Z,51.70
2022-10-28T14:09:06.953Z,58.50
2022-10-28T14:22:44.451Z,59.20
2022-10-28T14:32:45.896Z,60.50
2022-10-28T14:42:48.725Z,60.60
2022-10-28T14:52:50.132Z,60.40
2022-10-28T15:02:51.527Z,60.50
2022-10-28T15:12:53.219Z,60.50
2022-10-28T15:22:55.072Z,61.20
2022-10-28T15:32:56.617Z,60.80
2022-10-28T15:42:58.089Z,60.40
2022-10-28T15:52:59.517Z,60.30
2022-10-28T16:03:01.477Z,60.10
2022-10-28T16:13:07.609Z,60.00
2022-10-28T16:23:12.079Z,60.10
2022-10-28T16:33:13.465Z,60.00
2022-10-28T16:43:14.850Z,60.00
2022-10-28T16:53:16.232Z,60.00
2022-10-28T17:03:17.614Z,60.00
2022-10-28T17:13:18.986Z,59.90
2022-10-28T17:23:20.365Z,59.90
2022-10-28T17:33:21.751Z,59.90
2022-10-28T17:43:23.141Z,59.90
2022-10-28T17:53:24.521Z,59.90
2022-10-28T18:03:25.930Z,59.90
2022-10-28T18:13:27.338Z,59.80
2022-10-28T18:23:28.726Z,59.90
2022-10-28T18:33:30.129Z,59.90
2022-10-28T18:43:31.527Z,59.90
2022-10-28T18:53:32.914Z,59.90
